Salt Lake City, Utah
Traffic Map
Current Weather Conditions
Salt Lake City, Utah
Scattered Clouds
Scattered Clouds
17°
Feels Like: 17°
Wind Chill: 17° Ceiling: Unl
Heat Index: 17° Visibility: 10mi
Dew Point: -2° Wind: 6mph
Humidity: 27% Direction: 160° (SSE)
Pressure: 29.83in Gusts: 0mph
Raw Report DataKSLC 180253Z 16005KT 10SM SCT150 SCT210 17/M02 A2983 RMK AO2 SLP072 T01721022 58010
Traffic Incident Summary
Active as of:
Severity:
Category:
InformationThere was an issue retrieving the traffic information for this location. Please try a different location or try again shortly.
Advertisements
At Last! Intellicast now available for iPhone and Android